sensor_id;sensor_type;location;lat;lon;timestamp;P1;durP1;ratioP1;P2;durP2;ratioP2
8297;SDS011;4187;42.778;23.242;2023-02-03T00:00:22;5.00;;;4.20;;
8297;SDS011;4187;42.778;23.242;2023-02-03T00:02:51;5.37;;;4.07;;
8297;SDS011;4187;42.778;23.242;2023-02-03T00:05:17;5.97;;;4.13;;
8297;SDS011;4187;42.778;23.242;2023-02-03T00:07:45;5.70;;;4.10;;
8297;SDS011;4187;42.778;23.242;2023-02-03T00:10:12;5.63;;;4.53;;
8297;SDS011;4187;42.778;23.242;2023-02-03T00:12:38;5.87;;;3.70;;
8297;SDS011;4187;42.778;23.242;2023-02-03T00:15:05;8.17;;;4.93;;
8297;SDS011;4187;42.778;23.242;2023-02-03T00:17:32;6.73;;;4.90;;
8297;SDS011;4187;42.778;23.242;2023-02-03T00:19:58;5.53;;;4.47;;
8297;SDS011;4187;42.778;23.242;2023-02-03T00:22:25;6.20;;;4.60;;
8297;SDS011;4187;42.778;23.242;2023-02-03T00:24:53;7.10;;;4.50;;
8297;SDS011;4187;42.778;23.242;2023-02-03T00:27:19;5.83;;;4.17;;
8297;SDS011;4187;42.778;23.242;2023-02-03T00:29:46;5.87;;;4.57;;
8297;SDS011;4187;42.778;23.242;2023-02-03T00:32:12;4.73;;;3.90;;
8297;SDS011;4187;42.778;23.242;2023-02-03T00:34:39;5.50;;;4.07;;
8297;SDS011;4187;42.778;23.242;2023-02-03T00:37:05;6.80;;;4.57;;
8297;SDS011;4187;42.778;23.242;2023-02-03T00:39:34;5.70;;;4.30;;
8297;SDS011;4187;42.778;23.242;2023-02-03T00:42:03;6.90;;;5.10;;
8297;SDS011;4187;42.778;23.242;2023-02-03T00:44:30;5.97;;;4.83;;
8297;SDS011;4187;42.778;23.242;2023-02-03T00:46:56;5.23;;;4.73;;
8297;SDS011;4187;42.778;23.242;2023-02-03T00:49:23;8.40;;;5.30;;
8297;SDS011;4187;42.778;23.242;2023-02-03T00:51:49;6.80;;;4.77;;
8297;SDS011;4187;42.778;23.242;2023-02-03T00:54:16;5.60;;;5.00;;
8297;SDS011;4187;42.778;23.242;2023-02-03T00:56:43;6.60;;;5.13;;
8297;SDS011;4187;42.778;23.242;2023-02-03T00:59:11;5.87;;;4.60;;
8297;SDS011;4187;42.778;23.242;2023-02-03T01:01:37;6.10;;;4.80;;
8297;SDS011;4187;42.778;23.242;2023-02-03T01:04:04;5.90;;;5.00;;
8297;SDS011;4187;42.778;23.242;2023-02-03T01:06:30;6.60;;;4.70;;
8297;SDS011;4187;42.778;23.242;2023-02-03T01:08:57;5.20;;;4.20;;
8297;SDS011;4187;42.778;23.242;2023-02-03T01:11:24;5.63;;;3.80;;
8297;SDS011;4187;42.778;23.242;2023-02-03T01:13:51;3.87;;;2.93;;
8297;SDS011;4187;42.778;23.242;2023-02-03T01:16:20;4.00;;;3.50;;
8297;SDS011;4187;42.778;23.242;2023-02-03T01:18:47;5.80;;;3.30;;
8297;SDS011;4187;42.778;23.242;2023-02-03T01:21:14;3.07;;;2.77;;
8297;SDS011;4187;42.778;23.242;2023-02-03T01:23:41;4.60;;;3.20;;
8297;SDS011;4187;42.778;23.242;2023-02-03T01:26:08;3.77;;;2.50;;
8297;SDS011;4187;42.778;23.242;2023-02-03T01:28:35;4.97;;;2.87;;
8297;SDS011;4187;42.778;23.242;2023-02-03T01:31:08;4.10;;;3.20;;
8297;SDS011;4187;42.778;23.242;2023-02-03T01:33:36;5.03;;;4.53;;
8297;SDS011;4187;42.778;23.242;2023-02-03T01:36:05;5.37;;;4.87;;
8297;SDS011;4187;42.778;23.242;2023-02-03T01:38:31;4.60;;;4.10;;
8297;SDS011;4187;42.778;23.242;2023-02-03T01:40:58;3.40;;;3.10;;
8297;SDS011;4187;42.778;23.242;2023-02-03T01:43:28;2.73;;;2.37;;
8297;SDS011;4187;42.778;23.242;2023-02-03T01:45:55;2.50;;;2.30;;
8297;SDS011;4187;42.778;23.242;2023-02-03T01:48:22;3.30;;;2.90;;
8297;SDS011;4187;42.778;23.242;2023-02-03T01:50:50;4.60;;;2.40;;
8297;SDS011;4187;42.778;23.242;2023-02-03T01:53:17;3.37;;;2.80;;
8297;SDS011;4187;42.778;23.242;2023-02-03T01:55:44;2.40;;;2.20;;
8297;SDS011;4187;42.778;23.242;2023-02-03T01:58:13;2.47;;;2.27;;
8297;SDS011;4187;42.778;23.242;2023-02-03T02:00:41;3.17;;;2.87;;
8297;SDS011;4187;42.778;23.242;2023-02-03T02:03:08;2.57;;;2.30;;
8297;SDS011;4187;42.778;23.242;2023-02-03T02:05:36;3.10;;;2.43;;
8297;SDS011;4187;42.778;23.242;2023-02-03T02:08:05;5.53;;;3.13;;
8297;SDS011;4187;42.778;23.242;2023-02-03T02:10:32;3.77;;;3.07;;
8297;SDS011;4187;42.778;23.242;2023-02-03T02:12:59;5.53;;;3.20;;
8297;SDS011;4187;42.778;23.242;2023-02-03T02:15:29;4.43;;;4.03;;
8297;SDS011;4187;42.778;23.242;2023-02-03T02:18:05;5.40;;;4.70;;
8297;SDS011;4187;42.778;23.242;2023-02-03T02:23:32;5.73;;;4.00;;
8297;SDS011;4187;42.778;23.242;2023-02-03T02:26:19;3.50;;;3.20;;
8297;SDS011;4187;42.778;23.242;2023-02-03T02:28:53;4.27;;;3.43;;
8297;SDS011;4187;42.778;23.242;2023-02-03T02:34:21;4.57;;;4.13;;
8297;SDS011;4187;42.778;23.242;2023-02-03T02:36:51;4.10;;;3.70;;
8297;SDS011;4187;42.778;23.242;2023-02-03T02:39:23;4.33;;;3.57;;
8297;SDS011;4187;42.778;23.242;2023-02-03T02:41:55;4.73;;;4.33;;
8297;SDS011;4187;42.778;23.242;2023-02-03T02:44:24;7.33;;;5.60;;
8297;SDS011;4187;42.778;23.242;2023-02-03T02:46:52;5.60;;;5.10;;
8297;SDS011;4187;42.778;23.242;2023-02-03T02:49:22;4.47;;;4.07;;
8297;SDS011;4187;42.778;23.242;2023-02-03T02:51:50;7.83;;;5.90;;
8297;SDS011;4187;42.778;23.242;2023-02-03T02:54:19;6.17;;;5.20;;
8297;SDS011;4187;42.778;23.242;2023-02-03T02:56:47;6.60;;;5.37;;
8297;SDS011;4187;42.778;23.242;2023-02-03T02:59:14;4.73;;;4.07;;
8297;SDS011;4187;42.778;23.242;2023-02-03T03:01:41;5.17;;;4.47;;
8297;SDS011;4187;42.778;23.242;2023-02-03T03:04:07;5.20;;;4.07;;
8297;SDS011;4187;42.778;23.242;2023-02-03T03:06:39;6.13;;;5.13;;
8297;SDS011;4187;42.778;23.242;2023-02-03T03:09:08;6.80;;;5.97;;
8297;SDS011;4187;42.778;23.242;2023-02-03T03:11:37;6.37;;;5.47;;
8297;SDS011;4187;42.778;23.242;2023-02-03T03:14:05;5.47;;;4.37;;
8297;SDS011;4187;42.778;23.242;2023-02-03T03:16:35;3.07;;;2.67;;
8297;SDS011;4187;42.778;23.242;2023-02-03T03:19:03;2.40;;;2.20;;
8297;SDS011;4187;42.778;23.242;2023-02-03T03:21:31;2.60;;;2.40;;
8297;SDS011;4187;42.778;23.242;2023-02-03T03:24:01;3.40;;;3.00;;
8297;SDS011;4187;42.778;23.242;2023-02-03T03:26:31;5.00;;;3.37;;
8297;SDS011;4187;42.778;23.242;2023-02-03T03:29:02;3.47;;;3.17;;
8297;SDS011;4187;42.778;23.242;2023-02-03T03:31:31;3.50;;;2.80;;
8297;SDS011;4187;42.778;23.242;2023-02-03T03:33:58;3.83;;;3.30;;
8297;SDS011;4187;42.778;23.242;2023-02-03T03:36:25;3.93;;;3.20;;
8297;SDS011;4187;42.778;23.242;2023-02-03T03:38:54;3.43;;;2.90;;
8297;SDS011;4187;42.778;23.242;2023-02-03T03:41:25;5.10;;;3.03;;
8297;SDS011;4187;42.778;23.242;2023-02-03T03:43:55;4.87;;;3.27;;
8297;SDS011;4187;42.778;23.242;2023-02-03T03:46:24;4.40;;;3.40;;
8297;SDS011;4187;42.778;23.242;2023-02-03T03:48:53;2.93;;;2.73;;
8297;SDS011;4187;42.778;23.242;2023-02-03T03:51:21;3.27;;;2.63;;
8297;SDS011;4187;42.778;23.242;2023-02-03T03:53:49;3.13;;;2.70;;
8297;SDS011;4187;42.778;23.242;2023-02-03T03:56:18;3.63;;;2.47;;
8297;SDS011;4187;42.778;23.242;2023-02-03T03:58:48;2.50;;;2.30;;
8297;SDS011;4187;42.778;23.242;2023-02-03T04:01:16;2.70;;;2.37;;
8297;SDS011;4187;42.778;23.242;2023-02-03T04:03:43;2.87;;;2.67;;
8297;SDS011;4187;42.778;23.242;2023-02-03T04:06:10;3.10;;;2.80;;
8297;SDS011;4187;42.778;23.242;2023-02-03T04:08:37;4.47;;;3.50;;
8297;SDS011;4187;42.778;23.242;2023-02-03T04:11:04;3.13;;;2.80;;
8297;SDS011;4187;42.778;23.242;2023-02-03T04:13:30;4.23;;;2.80;;
8297;SDS011;4187;42.778;23.242;2023-02-03T04:15:58;3.73;;;2.70;;
8297;SDS011;4187;42.778;23.242;2023-02-03T04:18:25;4.53;;;3.00;;
8297;SDS011;4187;42.778;23.242;2023-02-03T04:20:51;2.83;;;2.63;;
8297;SDS011;4187;42.778;23.242;2023-02-03T04:23:18;2.80;;;2.60;;
8297;SDS011;4187;42.778;23.242;2023-02-03T04:25:44;2.80;;;2.60;;
8297;SDS011;4187;42.778;23.242;2023-02-03T04:28:11;4.37;;;2.83;;
8297;SDS011;4187;42.778;23.242;2023-02-03T04:30:37;3.40;;;2.73;;
8297;SDS011;4187;42.778;23.242;2023-02-03T04:33:05;3.27;;;2.93;;
8297;SDS011;4187;42.778;23.242;2023-02-03T04:35:32;3.40;;;3.10;;
8297;SDS011;4187;42.778;23.242;2023-02-03T04:37:58;3.13;;;2.77;;
8297;SDS011;4187;42.778;23.242;2023-02-03T04:40:25;3.77;;;3.13;;
8297;SDS011;4187;42.778;23.242;2023-02-03T04:42:51;3.33;;;3.03;;
8297;SDS011;4187;42.778;23.242;2023-02-03T04:45:18;3.93;;;2.83;;
8297;SDS011;4187;42.778;23.242;2023-02-03T04:47:44;3.27;;;2.93;;
8297;SDS011;4187;42.778;23.242;2023-02-03T04:50:18;3.37;;;3.07;;
8297;SDS011;4187;42.778;23.242;2023-02-03T04:52:44;3.40;;;3.10;;
8297;SDS011;4187;42.778;23.242;2023-02-03T04:55:11;2.97;;;2.67;;
8297;SDS011;4187;42.778;23.242;2023-02-03T04:57:37;4.37;;;2.90;;
8297;SDS011;4187;42.778;23.242;2023-02-03T05:00:04;4.07;;;2.57;;
8297;SDS011;4187;42.778;23.242;2023-02-03T05:02:31;3.77;;;2.63;;
8297;SDS011;4187;42.778;23.242;2023-02-03T05:04:57;3.30;;;3.00;;
8297;SDS011;4187;42.778;23.242;2023-02-03T05:07:25;3.60;;;2.77;;
8297;SDS011;4187;42.778;23.242;2023-02-03T05:09:52;4.47;;;3.10;;
8297;SDS011;4187;42.778;23.242;2023-02-03T05:12:18;3.07;;;2.50;;
8297;SDS011;4187;42.778;23.242;2023-02-03T05:14:45;5.57;;;4.97;;
8297;SDS011;4187;42.778;23.242;2023-02-03T05:17:11;4.53;;;4.13;;
8297;SDS011;4187;42.778;23.242;2023-02-03T05:19:38;5.20;;;3.63;;
8297;SDS011;4187;42.778;23.242;2023-02-03T05:22:04;4.30;;;2.67;;
8297;SDS011;4187;42.778;23.242;2023-02-03T05:24:32;3.40;;;2.60;;
8297;SDS011;4187;42.778;23.242;2023-02-03T05:26:59;3.93;;;2.87;;
8297;SDS011;4187;42.778;23.242;2023-02-03T05:29:25;10.47;;;7.03;;
8297;SDS011;4187;42.778;23.242;2023-02-03T05:31:52;7.33;;;5.57;;
8297;SDS011;4187;42.778;23.242;2023-02-03T05:34:18;4.63;;;4.00;;
8297;SDS011;4187;42.778;23.242;2023-02-03T05:36:45;5.17;;;3.67;;
8297;SDS011;4187;42.778;23.242;2023-02-03T05:39:12;3.30;;;3.00;;
8297;SDS011;4187;42.778;23.242;2023-02-03T05:41:39;3.70;;;3.40;;
8297;SDS011;4187;42.778;23.242;2023-02-03T05:44:17;5.10;;;3.40;;
8297;SDS011;4187;42.778;23.242;2023-02-03T05:46:44;4.37;;;3.33;;
8297;SDS011;4187;42.778;23.242;2023-02-03T05:49:10;3.60;;;3.30;;
8297;SDS011;4187;42.778;23.242;2023-02-03T05:51:37;3.63;;;3.33;;
8297;SDS011;4187;42.778;23.242;2023-02-03T05:54:03;4.40;;;3.20;;
8297;SDS011;4187;42.778;23.242;2023-02-03T05:56:30;3.80;;;3.40;;
8297;SDS011;4187;42.778;23.242;2023-02-03T05:58:58;4.33;;;3.87;;
8297;SDS011;4187;42.778;23.242;2023-02-03T06:01:24;3.87;;;3.40;;
8297;SDS011;4187;42.778;23.242;2023-02-03T06:03:51;4.87;;;3.03;;
8297;SDS011;4187;42.778;23.242;2023-02-03T06:06:17;3.27;;;2.63;;
8297;SDS011;4187;42.778;23.242;2023-02-03T06:08:44;3.90;;;3.60;;
8297;SDS011;4187;42.778;23.242;2023-02-03T06:11:10;5.33;;;3.67;;
8297;SDS011;4187;42.778;23.242;2023-02-03T06:13:37;3.37;;;2.90;;
8297;SDS011;4187;42.778;23.242;2023-02-03T06:16:05;2.53;;;2.33;;
8297;SDS011;4187;42.778;23.242;2023-02-03T06:18:32;2.60;;;2.40;;
8297;SDS011;4187;42.778;23.242;2023-02-03T06:20:58;2.87;;;2.20;;
8297;SDS011;4187;42.778;23.242;2023-02-03T06:23:25;3.83;;;3.03;;
8297;SDS011;4187;42.778;23.242;2023-02-03T06:25:51;4.10;;;2.47;;
8297;SDS011;4187;42.778;23.242;2023-02-03T06:28:18;3.97;;;3.07;;
8297;SDS011;4187;42.778;23.242;2023-02-03T06:30:47;3.23;;;2.93;;
8297;SDS011;4187;42.778;23.242;2023-02-03T06:33:15;3.60;;;3.30;;
8297;SDS011;4187;42.778;23.242;2023-02-03T06:35:42;3.53;;;3.23;;
8297;SDS011;4187;42.778;23.242;2023-02-03T06:38:08;3.40;;;3.10;;
8297;SDS011;4187;42.778;23.242;2023-02-03T06:40:36;4.03;;;3.73;;
8297;SDS011;4187;42.778;23.242;2023-02-03T06:43:02;4.60;;;4.20;;
8297;SDS011;4187;42.778;23.242;2023-02-03T06:45:29;4.50;;;4.10;;
8297;SDS011;4187;42.778;23.242;2023-02-03T06:47:55;6.47;;;5.50;;
8297;SDS011;4187;42.778;23.242;2023-02-03T06:50:23;4.40;;;4.00;;
8297;SDS011;4187;42.778;23.242;2023-02-03T06:52:50;6.93;;;5.07;;
8297;SDS011;4187;42.778;23.242;2023-02-03T06:55:16;5.70;;;4.00;;
8297;SDS011;4187;42.778;23.242;2023-02-03T06:57:43;7.90;;;6.47;;
8297;SDS011;4187;42.778;23.242;2023-02-03T07:00:10;5.93;;;4.77;;
8297;SDS011;4187;42.778;23.242;2023-02-03T07:02:37;6.37;;;4.40;;
8297;SDS011;4187;42.778;23.242;2023-02-03T07:05:04;6.23;;;5.43;;
8297;SDS011;4187;42.778;23.242;2023-02-03T07:07:32;6.80;;;4.70;;
8297;SDS011;4187;42.778;23.242;2023-02-03T07:09:59;6.60;;;4.87;;
8297;SDS011;4187;42.778;23.242;2023-02-03T07:12:25;6.30;;;5.70;;
8297;SDS011;4187;42.778;23.242;2023-02-03T07:14:52;4.00;;;3.30;;
8297;SDS011;4187;42.778;23.242;2023-02-03T07:17:18;3.43;;;2.60;;
8297;SDS011;4187;42.778;23.242;2023-02-03T07:19:45;3.13;;;2.43;;
8297;SDS011;4187;42.778;23.242;2023-02-03T07:22:12;4.13;;;3.73;;
8297;SDS011;4187;42.778;23.242;2023-02-03T07:24:40;5.27;;;4.03;;
8297;SDS011;4187;42.778;23.242;2023-02-03T07:27:06;3.83;;;3.47;;
8297;SDS011;4187;42.778;23.242;2023-02-03T07:29:33;3.90;;;2.70;;
8297;SDS011;4187;42.778;23.242;2023-02-03T07:31:59;1.80;;;1.70;;
8297;SDS011;4187;42.778;23.242;2023-02-03T07:34:26;2.97;;;2.50;;
8297;SDS011;4187;42.778;23.242;2023-02-03T07:36:53;2.73;;;2.13;;
8297;SDS011;4187;42.778;23.242;2023-02-03T07:39:19;4.33;;;2.93;;
8297;SDS011;4187;42.778;23.242;2023-02-03T07:41:47;3.00;;;2.73;;
8297;SDS011;4187;42.778;23.242;2023-02-03T07:44:14;2.97;;;2.17;;
8297;SDS011;4187;42.778;23.242;2023-02-03T07:46:40;2.87;;;2.50;;
8297;SDS011;4187;42.778;23.242;2023-02-03T07:49:09;3.33;;;2.70;;
8297;SDS011;4187;42.778;23.242;2023-02-03T07:51:35;2.90;;;2.03;;
8297;SDS011;4187;42.778;23.242;2023-02-03T07:54:03;2.20;;;1.80;;
8297;SDS011;4187;42.778;23.242;2023-02-03T07:56:30;2.63;;;1.67;;
8297;SDS011;4187;42.778;23.242;2023-02-03T07:58:58;3.23;;;2.20;;
8297;SDS011;4187;42.778;23.242;2023-02-03T08:01:25;1.90;;;1.70;;
8297;SDS011;4187;42.778;23.242;2023-02-03T08:03:51;1.97;;;1.40;;
8297;SDS011;4187;42.778;23.242;2023-02-03T08:06:18;1.63;;;1.53;;
8297;SDS011;4187;42.778;23.242;2023-02-03T08:08:44;4.17;;;1.83;;
8297;SDS011;4187;42.778;23.242;2023-02-03T08:11:11;3.50;;;2.03;;
8297;SDS011;4187;42.778;23.242;2023-02-03T08:13:37;1.90;;;1.75;;
8297;SDS011;4187;42.778;23.242;2023-02-03T08:16:05;3.10;;;2.37;;
8297;SDS011;4187;42.778;23.242;2023-02-03T08:18:32;2.05;;;1.75;;
8297;SDS011;4187;42.778;23.242;2023-02-03T08:20:59;2.88;;;1.70;;
8297;SDS011;4187;42.778;23.242;2023-02-03T08:23:27;5.07;;;1.73;;
8297;SDS011;4187;42.778;23.242;2023-02-03T08:25:54;2.10;;;1.55;;
8297;SDS011;4187;42.778;23.242;2023-02-03T08:28:20;2.90;;;1.88;;
8297;SDS011;4187;42.778;23.242;2023-02-03T08:30:47;4.43;;;3.88;;
8297;SDS011;4187;42.778;23.242;2023-02-03T08:33:15;2.58;;;2.38;;
8297;SDS011;4187;42.778;23.242;2023-02-03T08:35:43;2.60;;;1.30;;
8297;SDS011;4187;42.778;23.242;2023-02-03T08:38:10;2.20;;;2.00;;
8297;SDS011;4187;42.778;23.242;2023-02-03T08:40:37;3.30;;;1.85;;
8297;SDS011;4187;42.778;23.242;2023-02-03T08:43:05;2.50;;;2.00;;
8297;SDS011;4187;42.778;23.242;2023-02-03T08:45:31;8.00;;;5.10;;
8297;SDS011;4187;42.778;23.242;2023-02-03T08:47:58;9.30;;;6.70;;
8297;SDS011;4187;42.778;23.242;2023-02-03T08:50:26;12.47;;;8.57;;
8297;SDS011;4187;42.778;23.242;2023-02-03T08:52:52;6.07;;;4.50;;
8297;SDS011;4187;42.778;23.242;2023-02-03T08:55:19;1.80;;;1.70;;
8297;SDS011;4187;42.778;23.242;2023-02-03T08:57:45;2.10;;;1.90;;
8297;SDS011;4187;42.778;23.242;2023-02-03T09:00:12;3.60;;;2.27;;
8297;SDS011;4187;42.778;23.242;2023-02-03T09:02:39;3.57;;;2.77;;
8297;SDS011;4187;42.778;23.242;2023-02-03T09:05:05;3.17;;;2.45;;
8297;SDS011;4187;42.778;23.242;2023-02-03T09:07:33;4.17;;;2.50;;
8297;SDS011;4187;42.778;23.242;2023-02-03T09:10:00;1.85;;;1.63;;
8297;SDS011;4187;42.778;23.242;2023-02-03T09:12:27;3.42;;;2.13;;
8297;SDS011;4187;42.778;23.242;2023-02-03T09:14:53;3.05;;;1.83;;
8297;SDS011;4187;42.778;23.242;2023-02-03T09:17:20;3.10;;;2.03;;
8297;SDS011;4187;42.778;23.242;2023-02-03T09:19:46;1.90;;;1.57;;
8297;SDS011;4187;42.778;23.242;2023-02-03T09:22:13;2.13;;;1.80;;
8297;SDS011;4187;42.778;23.242;2023-02-03T09:24:41;1.73;;;1.60;;
8297;SDS011;4187;42.778;23.242;2023-02-03T09:27:07;3.40;;;1.57;;
8297;SDS011;4187;42.778;23.242;2023-02-03T09:29:34;2.77;;;1.93;;
8297;SDS011;4187;42.778;23.242;2023-02-03T09:32:00;5.40;;;3.67;;
8297;SDS011;4187;42.778;23.242;2023-02-03T09:34:31;2.53;;;1.80;;
8297;SDS011;4187;42.778;23.242;2023-02-03T09:36:58;1.50;;;1.40;;
8297;SDS011;4187;42.778;23.242;2023-02-03T09:39:24;2.03;;;1.80;;
8297;SDS011;4187;42.778;23.242;2023-02-03T09:44:49;2.03;;;1.80;;
8297;SDS011;4187;42.778;23.242;2023-02-03T09:47:19;2.73;;;2.10;;
8297;SDS011;4187;42.778;23.242;2023-02-03T09:49:48;2.70;;;2.30;;
8297;SDS011;4187;42.778;23.242;2023-02-03T09:52:16;2.77;;;1.50;;
8297;SDS011;4187;42.778;23.242;2023-02-03T09:54:45;1.60;;;1.23;;
8297;SDS011;4187;42.778;23.242;2023-02-03T09:57:14;2.23;;;1.70;;
8297;SDS011;4187;42.778;23.242;2023-02-03T09:59:43;1.70;;;1.43;;
8297;SDS011;4187;42.778;23.242;2023-02-03T10:02:15;2.10;;;1.60;;
8297;SDS011;4187;42.778;23.242;2023-02-03T10:04:48;1.83;;;1.60;;
8297;SDS011;4187;42.778;23.242;2023-02-03T10:07:18;2.70;;;2.20;;
8297;SDS011;4187;42.778;23.242;2023-02-03T10:09:52;2.20;;;2.00;;
8297;SDS011;4187;42.778;23.242;2023-02-03T10:12:35;3.00;;;1.67;;
8297;SDS011;4187;42.778;23.242;2023-02-03T10:15:11;2.47;;;2.03;;
8297;SDS011;4187;42.778;23.242;2023-02-03T10:17:47;2.03;;;1.70;;
8297;SDS011;4187;42.778;23.242;2023-02-03T10:20:17;1.90;;;1.70;;
8297;SDS011;4187;42.778;23.242;2023-02-03T10:22:46;2.47;;;1.73;;
8297;SDS011;4187;42.778;23.242;2023-02-03T10:25:15;2.05;;;1.50;;
8297;SDS011;4187;42.778;23.242;2023-02-03T10:27:44;1.50;;;1.40;;
8297;SDS011;4187;42.778;23.242;2023-02-03T10:30:22;2.63;;;2.28;;
8297;SDS011;4187;42.778;23.242;2023-02-03T10:32:51;2.73;;;2.20;;
8297;SDS011;4187;42.778;23.242;2023-02-03T10:35:19;2.37;;;2.17;;
8297;SDS011;4187;42.778;23.242;2023-02-03T10:37:47;2.13;;;1.60;;
8297;SDS011;4187;42.778;23.242;2023-02-03T10:40:15;2.00;;;1.80;;
8297;SDS011;4187;42.778;23.242;2023-02-03T10:42:42;2.00;;;1.77;;
8297;SDS011;4187;42.778;23.242;2023-02-03T10:45:27;1.90;;;1.50;;
8297;SDS011;4187;42.778;23.242;2023-02-03T10:47:55;1.77;;;1.67;;
8297;SDS011;4187;42.778;23.242;2023-02-03T10:50:22;3.80;;;2.10;;
8297;SDS011;4187;42.778;23.242;2023-02-03T10:52:56;2.43;;;1.97;;
8297;SDS011;4187;42.778;23.242;2023-02-03T10:55:43;3.83;;;2.33;;
8297;SDS011;4187;42.778;23.242;2023-02-03T10:58:13;3.10;;;2.60;;
8297;SDS011;4187;42.778;23.242;2023-02-03T11:00:40;3.50;;;2.07;;
8297;SDS011;4187;42.778;23.242;2023-02-03T11:03:15;4.77;;;2.63;;
8297;SDS011;4187;42.778;23.242;2023-02-03T11:05:46;2.47;;;2.00;;
8297;SDS011;4187;42.778;23.242;2023-02-03T11:08:13;2.83;;;2.13;;
8297;SDS011;4187;42.778;23.242;2023-02-03T11:10:40;2.30;;;1.80;;
8297;SDS011;4187;42.778;23.242;2023-02-03T11:13:11;2.33;;;2.10;;
8297;SDS011;4187;42.778;23.242;2023-02-03T11:15:42;2.13;;;1.60;;
8297;SDS011;4187;42.778;23.242;2023-02-03T11:21:06;2.67;;;2.20;;
8297;SDS011;4187;42.778;23.242;2023-02-03T11:23:35;3.70;;;2.77;;
8297;SDS011;4187;42.778;23.242;2023-02-03T11:26:09;6.30;;;2.73;;
8297;SDS011;4187;42.778;23.242;2023-02-03T11:28:43;3.07;;;2.77;;
8297;SDS011;4187;42.778;23.242;2023-02-03T11:31:22;4.57;;;3.47;;
8297;SDS011;4187;42.778;23.242;2023-02-03T11:33:52;5.50;;;2.50;;
8297;SDS011;4187;42.778;23.242;2023-02-03T11:36:25;2.27;;;2.07;;
8297;SDS011;4187;42.778;23.242;2023-02-03T11:39:07;2.60;;;2.33;;
8297;SDS011;4187;42.778;23.242;2023-02-03T11:41:36;3.97;;;1.90;;
8297;SDS011;4187;42.778;23.242;2023-02-03T11:44:09;3.33;;;1.80;;
8297;SDS011;4187;42.778;23.242;2023-02-03T11:46:37;3.10;;;2.80;;
8297;SDS011;4187;42.778;23.242;2023-02-03T11:49:10;3.15;;;2.05;;
8297;SDS011;4187;42.778;23.242;2023-02-03T11:51:47;2.67;;;2.10;;
8297;SDS011;4187;42.778;23.242;2023-02-03T11:54:21;1.53;;;1.40;;
8297;SDS011;4187;42.778;23.242;2023-02-03T11:57:06;1.48;;;1.38;;
8297;SDS011;4187;42.778;23.242;2023-02-03T12:00:01;2.50;;;2.13;;
8297;SDS011;4187;42.778;23.242;2023-02-03T12:02:50;3.28;;;1.92;;
8297;SDS011;4187;42.778;23.242;2023-02-03T12:05:48;3.05;;;1.55;;
8297;SDS011;4187;42.778;23.242;2023-02-03T12:08:47;2.78;;;1.45;;
8297;SDS011;4187;42.778;23.242;2023-02-03T12:11:27;10.13;;;4.83;;
8297;SDS011;4187;42.778;23.242;2023-02-03T12:14:12;4.33;;;3.67;;
8297;SDS011;4187;42.778;23.242;2023-02-03T12:19:55;2.50;;;2.15;;
8297;SDS011;4187;42.778;23.242;2023-02-03T12:22:31;1.55;;;1.38;;
8297;SDS011;4187;42.778;23.242;2023-02-03T12:25:06;3.90;;;2.97;;
8297;SDS011;4187;42.778;23.242;2023-02-03T12:27:48;3.25;;;2.78;;
8297;SDS011;4187;42.778;23.242;2023-02-03T12:30:24;3.20;;;2.60;;
8297;SDS011;4187;42.778;23.242;2023-02-03T12:32:56;5.55;;;2.85;;
8297;SDS011;4187;42.778;23.242;2023-02-03T12:35:29;4.22;;;2.63;;
8297;SDS011;4187;42.778;23.242;2023-02-03T12:38:00;4.25;;;2.70;;
8297;SDS011;4187;42.778;23.242;2023-02-03T12:40:34;2.80;;;2.13;;
8297;SDS011;4187;42.778;23.242;2023-02-03T12:43:16;2.15;;;1.60;;
8297;SDS011;4187;42.778;23.242;2023-02-03T12:45:50;6.80;;;4.07;;
8297;SDS011;4187;42.778;23.242;2023-02-03T12:48:21;5.43;;;3.63;;
8297;SDS011;4187;42.778;23.242;2023-02-03T12:50:52;8.63;;;4.30;;
8297;SDS011;4187;42.778;23.242;2023-02-03T12:53:24;7.97;;;4.77;;
8297;SDS011;4187;42.778;23.242;2023-02-03T12:55:58;3.90;;;2.50;;
8297;SDS011;4187;42.778;23.242;2023-02-03T12:58:30;2.08;;;1.88;;
8297;SDS011;4187;42.778;23.242;2023-02-03T13:01:02;4.57;;;2.08;;
8297;SDS011;4187;42.778;23.242;2023-02-03T13:03:32;2.65;;;1.77;;
8297;SDS011;4187;42.778;23.242;2023-02-03T13:06:05;1.60;;;1.50;;
8297;SDS011;4187;42.778;23.242;2023-02-03T13:08:37;1.75;;;1.63;;
8297;SDS011;4187;42.778;23.242;2023-02-03T13:11:11;3.50;;;1.67;;
8297;SDS011;4187;42.778;23.242;2023-02-03T13:13:47;2.03;;;1.53;;
8297;SDS011;4187;42.778;23.242;2023-02-03T13:16:22;2.72;;;1.60;;
8297;SDS011;4187;42.778;23.242;2023-02-03T13:18:54;3.30;;;2.20;;
8297;SDS011;4187;42.778;23.242;2023-02-03T13:21:26;1.85;;;1.73;;
8297;SDS011;4187;42.778;23.242;2023-02-03T13:23:53;1.90;;;1.50;;
8297;SDS011;4187;42.778;23.242;2023-02-03T13:26:31;2.40;;;1.93;;
8297;SDS011;4187;42.778;23.242;2023-02-03T13:29:25;2.67;;;2.00;;
8297;SDS011;4187;42.778;23.242;2023-02-03T13:32:08;3.57;;;3.03;;
8297;SDS011;4187;42.778;23.242;2023-02-03T13:34:45;2.37;;;1.80;;
8297;SDS011;4187;42.778;23.242;2023-02-03T13:40:23;2.00;;;1.63;;
8297;SDS011;4187;42.778;23.242;2023-02-03T13:42:59;3.33;;;2.30;;
8297;SDS011;4187;42.778;23.242;2023-02-03T13:45:30;1.98;;;1.70;;
8297;SDS011;4187;42.778;23.242;2023-02-03T13:48:00;5.93;;;2.00;;
8297;SDS011;4187;42.778;23.242;2023-02-03T13:50:35;3.77;;;2.20;;
8297;SDS011;4187;42.778;23.242;2023-02-03T13:53:03;1.67;;;1.50;;
8297;SDS011;4187;42.778;23.242;2023-02-03T13:55:34;4.13;;;2.15;;
8297;SDS011;4187;42.778;23.242;2023-02-03T13:58:05;2.77;;;2.20;;
8297;SDS011;4187;42.778;23.242;2023-02-03T14:00:58;2.95;;;2.38;;
8297;SDS011;4187;42.778;23.242;2023-02-03T14:03:42;8.98;;;4.53;;
8297;SDS011;4187;42.778;23.242;2023-02-03T14:09:34;5.17;;;2.70;;
8297;SDS011;4187;42.778;23.242;2023-02-03T14:12:12;6.87;;;4.10;;
8297;SDS011;4187;42.778;23.242;2023-02-03T14:14:57;4.47;;;2.67;;
8297;SDS011;4187;42.778;23.242;2023-02-03T14:20:33;5.63;;;3.90;;
8297;SDS011;4187;42.778;23.242;2023-02-03T14:23:08;6.60;;;4.90;;
8297;SDS011;4187;42.778;23.242;2023-02-03T14:25:40;5.20;;;3.60;;
8297;SDS011;4187;42.778;23.242;2023-02-03T14:28:10;4.93;;;3.70;;
8297;SDS011;4187;42.778;23.242;2023-02-03T14:36:44;4.23;;;3.33;;
8297;SDS011;4187;42.778;23.242;2023-02-03T14:45:35;7.77;;;6.80;;
8297;SDS011;4187;42.778;23.242;2023-02-03T14:48:20;8.37;;;7.07;;
8297;SDS011;4187;42.778;23.242;2023-02-03T14:51:03;16.13;;;12.10;;
8297;SDS011;4187;42.778;23.242;2023-02-03T14:53:44;6.83;;;6.03;;
8297;SDS011;4187;42.778;23.242;2023-02-03T14:56:29;6.93;;;6.23;;
8297;SDS011;4187;42.778;23.242;2023-02-03T14:59:20;4.23;;;3.17;;
8297;SDS011;4187;42.778;23.242;2023-02-03T15:02:12;3.60;;;3.30;;
8297;SDS011;4187;42.778;23.242;2023-02-03T15:04:42;3.73;;;3.00;;
8297;SDS011;4187;42.778;23.242;2023-02-03T15:10:11;4.87;;;3.30;;
8297;SDS011;4187;42.778;23.242;2023-02-03T15:12:43;3.53;;;3.23;;
8297;SDS011;4187;42.778;23.242;2023-02-03T15:15:12;4.47;;;2.93;;
8297;SDS011;4187;42.778;23.242;2023-02-03T15:17:45;4.17;;;3.30;;
8297;SDS011;4187;42.778;23.242;2023-02-03T15:20:25;5.47;;;4.03;;
8297;SDS011;4187;42.778;23.242;2023-02-03T15:22:58;3.17;;;2.83;;
8297;SDS011;4187;42.778;23.242;2023-02-03T15:25:25;2.30;;;2.07;;
8297;SDS011;4187;42.778;23.242;2023-02-03T15:28:08;3.97;;;2.30;;
8297;SDS011;4187;42.778;23.242;2023-02-03T15:30:36;3.23;;;2.20;;
8297;SDS011;4187;42.778;23.242;2023-02-03T15:33:06;4.00;;;2.30;;
8297;SDS011;4187;42.778;23.242;2023-02-03T15:35:38;5.23;;;2.47;;
8297;SDS011;4187;42.778;23.242;2023-02-03T15:38:09;3.43;;;2.27;;
8297;SDS011;4187;42.778;23.242;2023-02-03T15:40:40;5.17;;;2.57;;
8297;SDS011;4187;42.778;23.242;2023-02-03T15:43:12;4.33;;;2.40;;
8297;SDS011;4187;42.778;23.242;2023-02-03T15:45:43;4.93;;;2.50;;
8297;SDS011;4187;42.778;23.242;2023-02-03T15:48:20;3.63;;;2.70;;
8297;SDS011;4187;42.778;23.242;2023-02-03T15:50:59;2.90;;;2.53;;
8297;SDS011;4187;42.778;23.242;2023-02-03T15:53:33;3.93;;;2.67;;
8297;SDS011;4187;42.778;23.242;2023-02-03T15:56:12;7.33;;;4.57;;